createdAt,value
2023-06-07T00:01:18.673Z,100728.60
2023-06-07T00:06:22.409Z,100723.00
2023-06-07T00:11:25.305Z,100724.80
2023-06-07T00:16:28.538Z,100723.20
2023-06-07T00:21:31.618Z,100725.60
2023-06-07T00:26:34.615Z,100724.40
2023-06-07T00:31:38.126Z,100726.20
2023-06-07T00:36:41.297Z,100728.80
2023-06-07T00:41:44.405Z,100728.60
2023-06-07T00:46:47.581Z,100731.20
2023-06-07T00:51:51.533Z,100725.20
2023-06-07T00:56:54.677Z,100730.60
2023-06-07T01:01:58.948Z,100725.00
2023-06-07T01:07:05.588Z,100726.60
2023-06-07T01:12:16.181Z,100723.60
2023-06-07T01:17:25.703Z,100726.00
2023-06-07T01:22:34.083Z,100714.80
2023-06-07T01:27:41.328Z,100719.60
2023-06-07T01:32:45.482Z,100716.20
2023-06-07T01:37:49.787Z,100717.80
2023-06-07T01:42:55.201Z,100713.20
2023-06-07T01:47:58.687Z,100711.40
2023-06-07T01:53:01.688Z,100710.80
2023-06-07T01:58:37.714Z,100710.40
2023-06-07T02:03:46.712Z,100708.20
2023-06-07T02:08:56.194Z,100707.40
2023-06-07T02:14:00.488Z,100712.80
2023-06-07T02:19:08.391Z,100707.20
2023-06-07T02:24:12.369Z,100708.80
2023-06-07T02:29:15.847Z,100710.40
2023-06-07T02:34:18.778Z,100701.60
2023-06-07T02:39:22.650Z,100701.80
2023-06-07T02:44:25.732Z,100706.00
2023-06-07T02:49:28.637Z,100706.80
2023-06-07T02:54:31.708Z,100711.60
2023-06-07T02:59:35.014Z,100709.00
2023-06-07T03:04:39.694Z,100717.00
2023-06-07T03:09:42.882Z,100716.60
2023-06-07T03:14:46.165Z,100715.40
2023-06-07T03:19:49.941Z,100720.00
2023-06-07T03:24:55.390Z,100717.60
2023-06-07T03:29:58.454Z,100721.20
2023-06-07T03:35:01.457Z,100725.20
2023-06-07T03:40:05.489Z,100721.20
2023-06-07T03:45:09.471Z,100724.80
2023-06-07T03:50:12.610Z,100727.80
2023-06-07T03:55:16.228Z,100730.20
2023-06-07T04:00:19.655Z,100732.00
2023-06-07T04:05:25.807Z,100736.20
2023-06-07T04:10:28.687Z,100734.00
2023-06-07T04:15:31.711Z,100736.00
2023-06-07T04:20:34.637Z,100734.40
2023-06-07T04:25:37.573Z,100726.60
2023-06-07T04:30:43.871Z,100732.20
2023-06-07T04:35:47.665Z,100731.00
2023-06-07T04:40:51.617Z,100731.00
2023-06-07T04:45:58.254Z,100738.80
2023-06-07T04:51:06.942Z,100735.20
2023-06-07T04:56:11.162Z,100742.60
2023-06-07T05:01:14.736Z,100741.00
2023-06-07T05:06:18.678Z,100740.00
2023-06-07T05:11:21.681Z,100739.80
2023-06-07T05:16:25.942Z,100751.80
2023-06-07T05:21:29.300Z,100754.80
2023-06-07T05:26:32.266Z,100756.20
2023-06-07T05:31:35.325Z,100759.60
2023-06-07T05:36:38.276Z,100759.80
2023-06-07T05:41:41.364Z,100757.20
2023-06-07T05:46:44.292Z,100757.60
2023-06-07T05:51:47.337Z,100768.00
2023-06-07T05:56:53.496Z,100766.60
2023-06-07T06:01:57.466Z,100763.00
2023-06-07T06:07:01.880Z,100763.60
2023-06-07T06:12:07.741Z,100771.80
2023-06-07T06:17:13.107Z,100782.40
2023-06-07T06:22:16.102Z,100775.80
2023-06-07T06:27:21.990Z,100780.00
2023-06-07T06:32:25.301Z,100778.80
2023-06-07T06:37:28.588Z,100778.20
2023-06-07T06:42:31.954Z,100782.80
2023-06-07T06:47:37.419Z,100778.40
2023-06-07T06:52:42.781Z,100783.80
2023-06-07T06:57:45.821Z,100784.20
2023-06-07T07:02:49.152Z,100789.20
2023-06-07T07:07:52.419Z,100794.00
2023-06-07T07:12:55.746Z,100795.20
2023-06-07T07:17:58.835Z,100793.20
2023-06-07T07:23:03.317Z,100797.40
2023-06-07T07:28:06.620Z,100795.80
2023-06-07T07:33:09.597Z,100797.60
2023-06-07T07:38:17.188Z,100797.80
2023-06-07T07:43:20.162Z,100796.60
2023-06-07T07:48:23.384Z,100796.80
2023-06-07T07:53:26.381Z,100794.80
2023-06-07T07:58:29.269Z,100789.80
2023-06-07T08:03:33.892Z,100792.80
2023-06-07T08:08:38.581Z,100793.80
2023-06-07T08:13:41.655Z,100789.40
2023-06-07T08:18:46.776Z,100788.00
2023-06-07T08:23:50.820Z,100793.20
2023-06-07T08:28:54.001Z,100789.40
2023-06-07T08:33:57.050Z,100786.60
2023-06-07T08:39:00.110Z,100783.60
2023-06-07T08:44:04.326Z,100782.60
2023-06-07T08:49:09.570Z,100778.00
2023-06-07T08:54:19.495Z,100776.40
2023-06-07T08:59:28.284Z,100779.20
2023-06-07T09:04:31.800Z,100776.60
2023-06-07T09:09:36.662Z,100779.00
2023-06-07T09:14:41.423Z,100782.00
2023-06-07T09:19:44.780Z,100775.20
2023-06-07T09:24:47.878Z,100780.40
2023-06-07T09:29:51.071Z,100780.80
2023-06-07T09:35:14.190Z,100776.40
2023-06-07T09:40:20.222Z,100785.20
2023-06-07T09:45:25.185Z,100787.00
2023-06-07T09:50:29.523Z,100774.80
2023-06-07T09:55:33.499Z,100774.60
2023-06-07T10:00:44.514Z,100782.80
2023-06-07T10:05:48.341Z,100771.00
2023-06-07T10:10:53.777Z,100769.60
2023-06-07T10:15:57.384Z,100767.80
2023-06-07T10:21:14.936Z,100764.00
2023-06-07T10:26:30.287Z,100753.40
2023-06-07T10:31:40.984Z,100746.20
2023-06-07T10:36:44.002Z,100741.20
2023-06-07T10:41:47.163Z,100746.40
2023-06-07T10:46:52.259Z,100740.00
2023-06-07T10:52:00.538Z,100739.80
2023-06-07T10:57:04.405Z,100736.40
2023-06-07T11:02:25.240Z,100731.60
2023-06-07T11:07:33.054Z,100732.00
2023-06-07T11:12:36.777Z,100727.80
2023-06-07T11:18:13.500Z,100725.20
2023-06-07T11:23:29.997Z,100725.60
2023-06-07T11:28:39.149Z,100722.40
2023-06-07T11:33:44.397Z,100719.40
2023-06-07T11:38:53.405Z,100719.60
2023-06-07T11:43:57.894Z,100715.00
2023-06-07T11:49:09.082Z,100717.00
2023-06-07T11:54:12.419Z,100718.00
2023-06-07T11:59:16.940Z,100714.80
2023-06-07T12:04:22.826Z,100710.80
2023-06-07T12:09:28.110Z,100704.80
2023-06-07T12:14:35.327Z,100698.60
2023-06-07T12:19:38.628Z,100694.40
2023-06-07T12:24:42.075Z,100688.00
2023-06-07T12:29:54.624Z,100687.80
2023-06-07T12:35:03.806Z,100683.20
2023-06-07T12:40:10.266Z,100677.20
2023-06-07T12:45:14.046Z,100680.60
2023-06-07T12:50:18.092Z,100679.60
2023-06-07T12:55:22.533Z,100676.60
2023-06-07T13:00:25.770Z,100678.60
2023-06-07T13:05:30.040Z,100677.40
2023-06-07T13:10:33.305Z,100667.00
2023-06-07T13:15:37.499Z,100663.20
2023-06-07T13:20:40.840Z,100662.20
2023-06-07T13:25:44.410Z,100655.00
2023-06-07T13:30:47.429Z,100653.60
2023-06-07T13:35:52.009Z,100647.60
2023-06-07T13:40:58.939Z,100639.80
2023-06-07T13:46:05.345Z,100636.00
2023-06-07T13:51:13.632Z,100624.60
2023-06-07T13:56:18.119Z,100626.20
2023-06-07T14:01:22.327Z,100624.20
2023-06-07T14:06:28.681Z,100622.40
2023-06-07T14:11:32.420Z,100617.20
2023-06-07T14:16:35.813Z,100614.40
2023-06-07T14:21:39.290Z,100617.60
2023-06-07T14:26:42.318Z,100613.00
2023-06-07T14:31:45.332Z,100603.20
2023-06-07T14:36:48.308Z,100612.40
2023-06-07T14:41:51.322Z,100607.20
2023-06-07T14:46:54.246Z,100610.20
2023-06-07T14:51:57.257Z,100606.20
2023-06-07T14:57:00.185Z,100602.60
2023-06-07T15:02:03.383Z,100598.80
2023-06-07T15:07:07.360Z,100603.60
2023-06-07T15:12:11.646Z,100598.00
2023-06-07T15:17:14.566Z,100601.80
2023-06-07T15:22:17.545Z,100592.00
2023-06-07T15:27:20.673Z,100588.80
2023-06-07T15:32:23.788Z,100591.00
2023-06-07T15:37:26.908Z,100588.60
2023-06-07T15:42:29.974Z,100587.20
2023-06-07T15:47:33.026Z,100582.40
2023-06-07T15:52:36.030Z,100579.60
2023-06-07T15:57:38.882Z,100579.80
2023-06-07T16:02:41.855Z,100581.60
2023-06-07T16:07:44.831Z,100577.80
2023-06-07T16:12:48.814Z,100579.40
2023-06-07T16:17:53.650Z,100585.20
2023-06-07T16:22:56.761Z,100580.20
2023-06-07T16:27:59.811Z,100583.60
2023-06-07T16:33:04.134Z,100592.40
2023-06-07T16:38:07.405Z,100593.60
2023-06-07T16:43:10.414Z,100589.20
2023-06-07T16:48:13.623Z,100590.00
2023-06-07T16:53:16.681Z,100592.20
2023-06-07T16:58:19.788Z,100583.80
2023-06-07T17:03:22.787Z,100585.20
2023-06-07T17:08:25.890Z,100585.40
2023-06-07T17:13:28.834Z,100579.40
2023-06-07T17:18:31.888Z,100580.40
2023-06-07T17:23:34.978Z,100583.80
2023-06-07T17:28:38.121Z,100588.60
2023-06-07T17:33:43.011Z,100594.60
2023-06-07T17:38:49.698Z,100593.60
2023-06-07T17:43:52.988Z,100596.00
2023-06-07T17:48:56.165Z,100596.80
2023-06-07T17:54:02.391Z,100600.80
2023-06-07T17:59:05.503Z,100601.60
2023-06-07T18:04:11.436Z,100614.00
2023-06-07T18:09:14.564Z,100612.60
2023-06-07T18:14:18.666Z,100623.20
2023-06-07T18:19:21.867Z,100622.20
2023-06-07T18:24:25.659Z,100632.80
2023-06-07T18:29:31.010Z,100639.40
2023-06-07T18:34:35.300Z,100638.80
2023-06-07T18:39:38.611Z,100642.80
2023-06-07T18:44:43.845Z,100646.60
2023-06-07T18:49:49.728Z,100651.40
2023-06-07T18:54:53.501Z,100652.80
2023-06-07T18:59:56.494Z,100657.80
2023-06-07T19:04:59.844Z,100659.80
2023-06-07T19:10:03.682Z,100665.00
2023-06-07T19:15:11.111Z,100667.40
2023-06-07T19:20:14.783Z,100667.00
2023-06-07T19:25:18.247Z,100675.40
2023-06-07T19:30:24.535Z,100681.40
2023-06-07T19:35:29.875Z,100679.40
2023-06-07T19:40:33.498Z,100680.20
2023-06-07T19:45:42.757Z,100688.80
2023-06-07T19:50:47.077Z,100683.60
2023-06-07T19:55:55.439Z,100685.20
2023-06-07T20:00:59.189Z,100690.20
2023-06-07T20:06:03.326Z,100686.40
2023-06-07T20:11:06.534Z,100683.40
2023-06-07T20:16:12.653Z,100683.80
2023-06-07T20:21:16.137Z,100681.80
2023-06-07T20:26:19.194Z,100678.40
2023-06-07T20:31:22.698Z,100675.60
2023-06-07T20:36:27.364Z,100682.40
2023-06-07T20:41:30.425Z,100682.00
2023-06-07T20:46:33.982Z,100686.80
2023-06-07T20:51:38.505Z,100677.80
2023-06-07T20:56:41.646Z,100681.40
2023-06-07T21:01:44.924Z,100678.40
2023-06-07T21:06:48.274Z,100677.40
2023-06-07T21:11:51.550Z,100676.20
2023-06-07T21:16:54.758Z,100677.80
2023-06-07T21:21:57.988Z,100679.20
2023-06-07T21:27:01.463Z,100679.20
2023-06-07T21:32:05.330Z,100678.20
2023-06-07T21:37:14.667Z,100682.20
2023-06-07T21:42:20.835Z,100676.40
2023-06-07T21:47:23.965Z,100674.60
2023-06-07T21:52:28.496Z,100673.20
2023-06-07T21:57:32.477Z,100676.60
2023-06-07T22:02:36.025Z,100679.40
2023-06-07T22:07:40.243Z,100674.00
2023-06-07T22:12:43.524Z,100675.00
2023-06-07T22:17:48.995Z,100674.80
2023-06-07T22:22:54.634Z,100671.40
2023-06-07T22:27:59.235Z,100666.00
2023-06-07T22:33:05.987Z,100665.80
2023-06-07T22:38:13.599Z,100666.20
2023-06-07T22:43:17.194Z,100669.40
2023-06-07T22:48:21.561Z,100673.80
2023-06-07T22:53:25.326Z,100674.20
2023-06-07T22:58:28.360Z,100673.80
2023-06-07T23:03:32.027Z,100663.40
2023-06-07T23:08:35.261Z,100663.80
2023-06-07T23:13:38.392Z,100663.00
2023-06-07T23:18:41.921Z,100655.40
2023-06-07T23:23:50.892Z,100655.00
2023-06-07T23:28:54.098Z,100657.80
2023-06-07T23:33:57.080Z,100656.20
2023-06-07T23:39:00.173Z,100651.80
2023-06-07T23:44:03.341Z,100644.60
2023-06-07T23:49:07.007Z,100633.40
2023-06-07T23:54:12.981Z,100638.40
2023-06-07T23:59:16.348Z,100634.80
